Time;durP1;ratioP1;P1;durP2;ratioP2;P2;SDS_P1;SDS_P2;PMS_P1;PMS_P2;Temp;Humidity;BMP_temperature;BMP_pressure;BME280_temperature;BME280_humidity;BME280_pressure;Samples;Min_cycle;Max_cycle;Signal;HPM_P1;HPM_P2
2022/02/19 00:05:19;;;;;;;11.25;0.90;;;6.40;99.90;;;;;;6689666;88;20264;-74
2022/02/19 00:15:20;;;;;;;6.50;1.17;;;6.40;99.90;;;;;;6683234;88;20659;-74
2022/02/19 00:25:20;;;;;;;7.43;0.90;;;6.40;99.90;;;;;;6695445;88;20304;-74
2022/02/19 00:35:22;;;;;;;5.55;1.02;;;6.40;99.90;;;;;;6694902;88;20210;-74
2022/02/19 00:45:22;;;;;;;6.72;0.90;;;6.50;99.90;;;;;;6689036;88;20741;-74
2022/02/19 00:55:23;;;;;;;8.68;0.90;;;6.40;99.90;;;;;;6698923;88;20292;-75
2022/02/19 01:05:24;;;;;;;7.35;1.27;;;6.40;99.90;;;;;;6691697;88;20294;-75
2022/02/19 01:15:25;;;;;;;12.63;1.20;;;6.40;99.90;;;;;;6692298;88;20342;-76
2022/02/19 01:25:26;;;;;;;9.57;0.98;;;6.30;99.90;;;;;;6698912;88;20198;-75
2022/02/19 01:35:26;;;;;;;4.20;0.70;;;6.30;99.90;;;;;;6697380;88;20220;-75
2022/02/19 01:45:27;;;;;;;6.70;1.57;;;6.20;99.90;;;;;;6693320;88;20191;-74
2022/02/19 01:55:28;;;;;;;7.63;0.73;;;6.20;99.90;;;;;;6690931;88;20514;-74
2022/02/19 02:05:33;;;;;;;4.43;1.05;;;6.10;99.90;;;;;;6699517;88;20579;-74
2022/02/19 02:15:34;;;;;;;7.03;0.90;;;6.00;99.90;;;;;;6709137;88;20320;-75
2022/02/19 02:25:35;;;;;;;6.35;0.95;;;6.00;99.90;;;;;;6690548;88;20186;-75
2022/02/19 02:35:36;;;;;;;3.95;1.05;;;5.90;99.90;;;;;;6695035;88;20210;-75
2022/02/19 02:45:37;;;;;;;4.60;0.70;;;5.90;99.90;;;;;;6690733;88;20231;-74
2022/02/19 02:55:37;;;;;;;6.82;0.80;;;5.90;99.90;;;;;;6692101;88;20617;-75
2022/02/19 03:05:40;;;;;;;4.25;0.98;;;5.90;99.90;;;;;;6689883;88;20196;-75
2022/02/19 03:15:41;;;;;;;9.63;0.88;;;5.90;99.90;;;;;;6690161;88;20285;-75
2022/02/19 03:25:41;;;;;;;4.82;0.98;;;5.90;99.90;;;;;;6689396;88;21333;-75
2022/02/19 03:35:42;;;;;;;3.87;0.70;;;5.90;99.90;;;;;;6689426;88;20204;-75
2022/02/19 03:45:45;;;;;;;7.45;1.00;;;5.70;99.90;;;;;;6690093;88;20513;-74
2022/02/19 03:55:45;;;;;;;6.12;1.12;;;5.40;99.90;;;;;;6704919;88;20507;-74
2022/02/19 04:05:46;;;;;;;7.15;0.85;;;5.40;99.90;;;;;;6692212;88;20206;-75
2022/02/19 04:15:47;;;;;;;5.93;1.17;;;5.40;99.90;;;;;;6685929;88;20195;-75
2022/02/19 04:25:48;;;;;;;5.55;0.70;;;5.20;99.90;;;;;;6702725;88;20193;-75
2022/02/19 04:35:48;;;;;;;4.15;0.80;;;5.10;99.90;;;;;;6697614;88;20224;-75
2022/02/19 04:45:49;;;;;;;7.25;0.60;;;5.10;99.90;;;;;;6693814;88;20233;-75
2022/02/19 04:55:49;;;;;;;4.95;0.90;;;5.00;99.90;;;;;;6692750;88;20195;-75
2022/02/19 05:05:50;;;;;;;6.57;0.93;;;5.10;99.90;;;;;;6687106;88;20212;-75
2022/02/19 05:15:50;;;;;;;4.55;0.88;;;5.20;99.90;;;;;;6687994;88;20237;-75
2022/02/19 05:25:51;;;;;;;5.07;0.95;;;5.30;99.90;;;;;;6688321;88;20302;-75
2022/02/19 05:35:52;;;;;;;8.32;0.80;;;5.40;99.90;;;;;;6684689;88;20810;-75
2022/02/19 05:45:52;;;;;;;2.72;0.47;;;5.30;99.90;;;;;;6689086;88;20248;-75
2022/02/19 05:55:53;;;;;;;5.47;1.02;;;5.40;99.90;;;;;;6686074;88;20694;-75
2022/02/19 06:06:14;;;;;;;4.87;0.77;;;5.30;99.90;;;;;;6716204;77;20201;-77
2022/02/19 06:16:15;;;;;;;7.78;1.12;;;5.30;99.90;;;;;;6723419;88;20278;-77
2022/02/19 06:26:15;;;;;;;7.43;1.23;;;5.20;99.90;;;;;;6727195;88;20222;-77
2022/02/19 06:36:16;;;;;;;6.35;1.20;;;5.00;99.90;;;;;;6726826;88;20600;-79
2022/02/19 06:46:16;;;;;;;7.65;1.05;;;5.10;99.90;;;;;;6724053;88;20649;-77
2022/02/19 06:56:17;;;;;;;5.50;1.07;;;4.90;99.90;;;;;;6745074;88;20204;-84
2022/02/19 07:06:17;;;;;;;7.40;0.95;;;4.90;99.90;;;;;;6751733;88;20592;-81
2022/02/19 07:16:18;;;;;;;7.18;0.80;;;4.80;99.90;;;;;;6747561;88;20742;-82
2022/02/19 07:26:18;;;;;;;9.88;0.75;;;4.90;99.90;;;;;;6751325;88;20749;-82
2022/02/19 07:36:19;;;;;;;9.30;1.08;;;4.90;99.90;;;;;;6747215;88;20150;-81
2022/02/19 07:46:19;;;;;;;7.32;0.80;;;5.10;99.90;;;;;;6733732;88;20217;-77
2022/02/19 08:06:39;;;;;;;8.38;1.20;;;5.60;99.90;;;;;;6725095;88;20237;-80
2022/02/19 08:16:40;;;;;;;9.88;1.15;;;5.80;99.90;;;;;;6735097;88;20285;-78
2022/02/19 08:26:40;;;;;;;8.60;1.12;;;6.20;99.90;;;;;;6734193;88;20262;-79
2022/02/19 08:36:41;;;;;;;7.07;1.33;;;6.60;99.90;;;;;;6722588;88;20356;-79
2022/02/19 08:46:41;;;;;;;4.83;1.03;;;7.00;99.90;;;;;;6711104;88;20310;-77
2022/02/19 08:56:44;;;;;;;9.88;1.15;;;7.30;99.90;;;;;;6710606;88;20572;-79
2022/02/19 09:06:45;;;;;;;10.98;1.30;;;7.50;99.90;;;;;;6705998;88;20186;-79
2022/02/19 09:16:45;;;;;;;6.25;0.90;;;7.40;99.90;;;;;;6707942;88;20182;-77
2022/02/19 09:26:46;;;;;;;6.95;1.00;;;7.80;99.90;;;;;;6704753;88;20201;-78
2022/02/19 09:36:47;;;;;;;6.62;1.27;;;8.20;99.90;;;;;;6707962;88;20232;-79
2022/02/19 09:46:50;;;;;;;3.62;0.80;;;8.40;99.70;;;;;;6714665;88;20219;-78
2022/02/19 09:56:51;;;;;;;5.40;0.73;;;8.60;99.80;;;;;;6710340;88;20206;-81
2022/02/19 10:06:52;;;;;;;6.25;0.90;;;9.10;99.20;;;;;;6712442;88;20217;-79
2022/02/19 10:17:16;;;;;;;6.03;0.80;;;9.00;98.00;;;;;;6710891;88;20207;-77
2022/02/19 10:27:17;;;;;;;4.75;0.90;;;9.10;97.60;;;;;;6703158;88;20298;-78
2022/02/19 10:37:23;;;;;;;2.92;0.70;;;8.90;97.90;;;;;;6700384;88;20312;-79
2022/02/19 10:47:26;;;;;;;9.67;1.27;;;9.10;96.30;;;;;;6703593;88;20333;-79
2022/02/19 10:57:27;;;;;;;4.82;0.90;;;9.60;95.80;;;;;;6701714;88;20252;-78
2022/02/19 11:07:27;;;;;;;3.08;0.50;;;9.20;94.10;;;;;;6704049;88;20556;-79
2022/02/19 11:17:31;;;;;;;4.47;0.70;;;9.40;92.10;;;;;;6700731;88;20201;-79
2022/02/19 11:27:48;;;;;;;1.92;0.57;;;10.40;91.30;;;;;;6704732;88;20190;-77
2022/02/19 11:37:48;;;;;;;2.80;0.60;;;11.30;90.50;;;;;;6718842;88;20227;-76
2022/02/19 11:47:51;;;;;;;7.12;0.90;;;10.90;89.90;;;;;;6720464;88;20243;-78
2022/02/19 11:58:22;;;;;;;2.87;0.60;;;11.40;90.10;;;;;;6706534;88;20201;-77
2022/02/19 12:08:23;;;;;;;3.40;0.70;;;10.50;90.60;;;;;;6698835;77;20266;-75
2022/02/19 12:18:49;;;;;;;5.07;0.70;;;10.70;90.50;;;;;;6699935;88;20209;-73
2022/02/19 12:29:19;;;;;;;4.87;0.82;;;11.40;90.30;;;;;;6690592;88;20739;-73
2022/02/19 12:39:21;;;;;;;4.07;0.70;;;10.20;90.70;;;;;;6694330;88;20264;-73
2022/02/19 12:49:23;;;;;;;5.65;0.80;;;9.30;91.90;;;;;;6705604;88;20264;-73
2022/02/19 12:59:32;;;;;;;5.40;0.75;;;10.00;92.10;;;;;;6702238;88;20267;-75
2022/02/19 13:09:33;;;;;;;2.37;0.60;;;10.40;91.30;;;;;;6707818;88;20607;-75
2022/02/19 13:19:39;;;;;;;4.30;0.65;;;10.10;90.50;;;;;;6703140;88;20238;-74
2022/02/19 13:29:45;;;;;;;2.83;0.77;;;10.30;91.10;;;;;;6698895;88;20200;-74
2022/02/19 13:39:52;;;;;;;3.75;0.57;;;14.20;82.50;;;;;;6690065;88;20198;-74
2022/02/19 13:49:52;;;;;;;4.45;0.62;;;10.50;86.10;;;;;;6700267;88;20187;-74
2022/02/19 14:00:05;;;;;;;3.30;0.65;;;12.30;86.30;;;;;;6700830;88;20191;-73
2022/02/19 14:10:08;;;;;;;4.53;0.50;;;11.90;84.70;;;;;;6695462;88;20627;-74
2022/02/19 14:20:13;;;;;;;6.32;0.60;;;11.00;88.10;;;;;;6692071;88;20187;-73
2022/02/19 14:30:14;;;;;;;3.30;0.50;;;10.90;86.40;;;;;;6684646;88;20826;-76
2022/02/19 14:40:16;;;;;;;4.43;0.60;;;10.70;88.90;;;;;;6680377;88;20183;-74
2022/02/19 14:50:16;;;;;;;3.85;0.50;;;10.20;90.50;;;;;;6680689;88;20655;-74
2022/02/19 15:00:18;;;;;;;3.55;0.90;;;9.60;90.60;;;;;;6679868;88;20211;-74
2022/02/19 15:10:19;;;;;;;3.83;0.70;;;9.70;91.50;;;;;;6681463;88;20187;-74
2022/02/19 15:20:21;;;;;;;3.80;0.62;;;9.20;91.90;;;;;;6688402;88;20191;-73
2022/02/19 15:30:22;;;;;;;2.87;0.57;;;8.70;92.70;;;;;;6679560;88;20289;-74
2022/02/19 15:40:23;;;;;;;3.15;0.60;;;8.60;93.10;;;;;;6679301;88;20365;-73
2022/02/19 15:50:24;;;;;;;2.70;0.57;;;8.50;93.60;;;;;;6687432;88;20218;-74
2022/02/19 16:00:26;;;;;;;3.00;0.60;;;8.60;93.90;;;;;;6682716;88;20249;-75
2022/02/19 16:10:26;;;;;;;5.93;0.80;;;8.40;94.90;;;;;;6680660;88;20224;-74
2022/02/19 16:20:27;;;;;;;4.97;0.93;;;8.50;95.60;;;;;;6692926;88;20194;-74
2022/02/19 16:30:28;;;;;;;2.45;0.60;;;8.20;96.30;;;;;;6694059;88;20212;-75
2022/02/19 16:40:30;;;;;;;4.57;0.80;;;8.10;96.50;;;;;;6693220;88;20174;-73
2022/02/19 16:50:31;;;;;;;5.00;1.05;;;8.00;97.00;;;;;;6703396;88;21021;-76
2022/02/19 17:00:31;;;;;;;11.18;1.25;;;7.90;97.40;;;;;;6686549;88;20177;-74
2022/02/19 17:10:32;;;;;;;3.03;0.83;;;7.80;98.00;;;;;;6695318;88;20224;-75
2022/02/19 17:20:32;;;;;;;3.58;0.90;;;7.70;99.20;;;;;;6700239;88;20507;-74
2022/02/19 17:30:33;;;;;;;3.97;1.10;;;7.60;99.50;;;;;;6691396;88;20648;-74
2022/02/19 17:40:33;;;;;;;4.60;0.60;;;7.50;99.50;;;;;;6686528;88;20786;-74
2022/02/19 17:50:34;;;;;;;4.10;1.02;;;7.60;99.30;;;;;;6694548;88;20210;-73
2022/02/19 18:00:35;;;;;;;3.20;0.77;;;7.60;99.20;;;;;;6705729;88;20198;-73
2022/02/19 18:10:56;;;;;;;3.37;0.70;;;7.60;99.10;;;;;;6720386;77;20559;-77
2022/02/19 18:20:56;;;;;;;4.03;0.68;;;7.60;98.90;;;;;;6723176;88;21025;-76
2022/02/19 18:30:57;;;;;;;3.65;0.57;;;7.60;98.90;;;;;;6735228;88;20678;-78
2022/02/19 18:40:57;;;;;;;2.10;0.50;;;7.50;98.90;;;;;;6738105;88;20192;-77
2022/02/19 18:50:58;;;;;;;5.72;1.23;;;7.50;99.00;;;;;;6723864;88;20209;-77
2022/02/19 19:00:59;;;;;;;3.95;0.70;;;7.50;99.10;;;;;;6722981;88;20197;-78
2022/02/19 19:10:59;;;;;;;3.67;0.80;;;7.50;99.30;;;;;;6723495;88;20259;-78
2022/02/19 19:21:00;;;;;;;6.40;1.20;;;7.50;99.40;;;;;;6727481;88;20278;-79
2022/02/19 19:31:01;;;;;;;3.65;0.52;;;7.50;99.90;;;;;;6722488;88;20162;-78
2022/02/19 19:41:02;;;;;;;5.12;0.75;;;7.20;99.90;;;;;;6724162;88;20311;-77
2022/02/19 19:51:03;;;;;;;4.12;0.80;;;6.80;99.90;;;;;;6723845;88;20211;-78
2022/02/19 20:01:05;;;;;;;4.75;0.90;;;6.70;99.90;;;;;;6721765;88;20180;-78
2022/02/19 20:11:06;;;;;;;6.57;1.08;;;6.60;99.90;;;;;;6721420;88;20233;-78
2022/02/19 20:21:09;;;;;;;2.15;0.60;;;6.40;99.90;;;;;;6720661;88;20338;-78
2022/02/19 20:31:10;;;;;;;3.85;0.50;;;6.30;99.90;;;;;;6700195;88;20194;-79
2022/02/19 20:41:10;;;;;;;5.55;0.85;;;6.10;99.90;;;;;;6704662;88;20263;-77
2022/02/19 20:51:11;;;;;;;5.50;0.70;;;6.00;99.90;;;;;;6701129;88;20201;-77
2022/02/19 21:01:12;;;;;;;1.60;0.52;;;5.90;99.90;;;;;;6698237;88;20523;-77
2022/02/19 21:11:12;;;;;;;5.30;0.60;;;6.00;99.90;;;;;;6718261;88;20684;-78
2022/02/19 21:21:13;;;;;;;1.85;0.60;;;6.10;99.90;;;;;;6720553;88;20193;-77
2022/02/19 21:31:13;;;;;;;1.90;0.47;;;6.20;99.90;;;;;;6720722;88;20221;-78
2022/02/19 21:41:14;;;;;;;1.42;0.47;;;6.30;99.90;;;;;;6723157;88;20366;-78
2022/02/19 21:51:15;;;;;;;1.87;0.40;;;6.50;99.90;;;;;;6724008;88;20341;-77
2022/02/19 22:01:16;;;;;;;3.85;0.43;;;6.80;99.90;;;;;;6718494;88;20217;-77
2022/02/19 22:11:17;;;;;;;2.03;0.40;;;6.90;99.90;;;;;;6724451;88;20227;-79
2022/02/19 22:21:18;;;;;;;2.55;0.30;;;6.80;99.90;;;;;;6727913;88;20188;-78
2022/02/19 22:31:18;;;;;;;0.82;0.30;;;6.90;99.90;;;;;;6720729;88;20509;-77
2022/02/19 22:41:19;;;;;;;1.30;0.50;;;6.70;99.90;;;;;;6705245;88;20591;-77
2022/02/19 22:51:21;;;;;;;0.95;0.32;;;6.50;99.90;;;;;;6707587;88;20205;-76
2022/02/19 23:01:33;;;;;;;2.08;0.40;;;6.40;99.90;;;;;;6706254;88;20383;-78
2022/02/19 23:11:33;;;;;;;1.10;0.30;;;6.50;99.90;;;;;;6702774;88;20195;-76
2022/02/19 23:21:34;;;;;;;0.98;0.37;;;6.60;99.90;;;;;;6705864;88;20209;-77
2022/02/19 23:31:35;;;;;;;1.70;0.50;;;6.40;99.90;;;;;;6705602;88;20230;-78
2022/02/19 23:41:36;;;;;;;1.17;0.40;;;6.50;99.90;;;;;;6704838;88;20194;-77
2022/02/19 23:51:37;;;;;;;3.28;0.60;;;6.70;99.90;;;;;;6705026;88;20209;-77
